Brillion, Wisconsin
Current Conditions -  °F | °C
As of 11:56 AM on Friday 24 Oct 2014 (Local Time) from KMTW Reporting Station
Overcast Overcast  
Wind Chill: 52°   Ceiling: 700
Heat Index: 52°   Visibility: 10mi
Dew Point: 49°   Wind: 6mph
Humidity: 89%   Direction: 210°SSW
Pressure: 30.01"   Gusts: NA
Location:  44.18°N, 88.06°W
Report Text: KMTW 241656Z AUTO 21005KT 10SM OVC007 11/09 A3001 RMK AO2 SLP188 T01110094
Loading
Personal Weather Stations






























Interactive Weather Map
Tropical Storm Tracking
New forecast layout! Learn more

10-Day Weather Forecast

Advertisements
Track Severe Weather on mobile